KRNH/RNH METAR and TAF weather

Enter ICAO airport designator
Station Type Date Time Source
KRNH METAR 2020/11/27 13:55 UTC NOAA

KRNH 271355Z AUTO 28009KT 10SM CLR M03/M05 A3008 RMK AO2 T10321052


Station Type Date Time Source
KRNH Decoded METAR 2020/11/27 13:55 UTC NOAA

New Richmond, New Richmond Municipal Airport, WI, United States (KRNH) 45-08-54N 092-32-17W
Nov 27, 2020 - 08:55 AM EST / 2020.11.27 1355 UTC
Wind: from the W (280 degrees) at 10 MPH (9 KT):0
Visibility: 10 mile(s):0
Sky conditions: clear
Temperature: 26.2 F (-3.2 C)
Windchill: 15 F (-9 C):1
Dew Point: 22.6 F (-5.2 C)
Relative Humidity: 86%
Pressure (altimeter): 30.08 in. Hg (1018 hPa)
ob: KRNH 271355Z AUTO 28009KT 10SM CLR M03/M05 A3008 RMK AO2 T10321052
cycle: 14

Station Type Date Time Source
KRNH TAF 2020/11/27 12:22 UTC NOAA

TAF KRNH 271120Z 2712/2812 27008KT P6SM SKC
FM280100 20006KT P6SM SKC

Example: see airport list